Time;durP1;ratioP1;P1;durP2;ratioP2;P2;SDS_P1;SDS_P2;PMS_P1;PMS_P2;Temp;Humidity;BMP_temperature;BMP_pressure;BME280_temperature;BME280_humidity;BME280_pressure;Samples;Min_cycle;Max_cycle;Signal;HPM_P1;HPM_P2
2023/09/29 00:09:00;;;;;;;3.92;2.72;;;;;;;18.03;63.19;100574.63;21060561;28;20291;-81
2023/09/29 00:19:03;;;;;;;6.65;2.85;;;;;;;18.01;63.44;100576.19;21071652;28;20191;-80
2023/09/29 00:29:05;;;;;;;3.90;2.45;;;;;;;17.76;64.00;100575.59;21067454;28;20231;-84
2023/09/29 00:39:13;;;;;;;5.65;2.63;;;;;;;18.24;62.40;100586.44;21072976;28;20202;-84
2023/09/29 00:49:15;;;;;;;4.82;2.72;;;;;;;18.05;62.93;100568.56;21074090;28;20323;-80
2023/09/29 00:59:18;;;;;;;4.53;2.70;;;;;;;17.83;64.26;100559.50;21074050;28;20205;-81
2023/09/29 01:09:21;;;;;;;4.55;2.45;;;;;;;17.58;65.00;100552.41;21069593;28;20218;-81
2023/09/29 01:19:24;;;;;;;5.20;2.47;;;;;;;17.74;64.30;100550.34;21062891;28;20199;-80
2023/09/29 01:29:27;;;;;;;3.17;2.28;;;;;;;17.49;65.12;100540.44;21060346;28;20211;-80
2023/09/29 01:39:29;;;;;;;2.88;2.03;;;;;;;17.68;64.16;100537.59;21061160;28;20567;-83
2023/09/29 01:49:32;;;;;;;3.53;1.85;;;;;;;17.50;64.80;100536.38;21066985;28;20232;-81
2023/09/29 01:59:34;;;;;;;5.57;2.45;;;;;;;17.47;65.25;100540.78;21079264;28;20198;-83
2023/09/29 02:09:37;;;;;;;5.75;2.50;;;;;;;17.33;66.12;100516.88;21069846;28;20309;-81
2023/09/29 02:19:38;;;;;;;6.13;2.22;;;;;;;17.38;65.98;100511.75;21079529;28;20195;-81
2023/09/29 02:29:42;;;;;;;3.65;2.20;;;;;;;17.61;64.51;100499.63;21074279;28;20677;-79
2023/09/29 02:39:45;;;;;;;2.70;1.98;;;;;;;17.38;65.48;100508.06;21078216;28;20187;-79
2023/09/29 02:49:49;;;;;;;2.90;1.98;;;;;;;17.24;65.92;100502.03;21064658;28;20526;-79
2023/09/29 02:59:50;;;;;;;4.15;2.10;;;;;;;17.44;65.63;100500.88;21066950;28;20584;-80
2023/09/29 03:09:56;;;;;;;3.88;2.08;;;;;;;17.25;66.59;100483.78;21065948;28;20615;-79
2023/09/29 03:19:58;;;;;;;3.42;2.45;;;;;;;17.71;64.53;100485.63;21066511;28;20199;-80
2023/09/29 03:30:01;;;;;;;4.68;2.22;;;;;;;17.40;66.40;100485.78;21059792;28;20675;-80
2023/09/29 03:40:07;;;;;;;2.92;2.25;;;;;;;17.66;64.77;100485.94;21060785;28;20203;-81
2023/09/29 03:50:11;;;;;;;3.45;2.30;;;;;;;17.52;65.94;100477.91;21046250;28;20275;-80
2023/09/29 04:00:16;;;;;;;3.97;2.08;;;;;;;17.45;66.08;100462.69;21058641;28;20203;-81
2023/09/29 04:10:20;;;;;;;2.60;2.28;;;;;;;17.62;65.35;100461.44;21061076;28;20712;-83
2023/09/29 04:20:23;;;;;;;2.75;2.33;;;;;;;17.66;65.29;100445.28;21067950;28;20275;-93
2023/09/29 04:30:26;;;;;;;4.80;2.20;;;;;;;17.56;65.81;100440.97;21062956;28;20217;-81
2023/09/29 04:40:29;;;;;;;3.95;1.70;;;;;;;17.23;65.94;100424.44;21045590;28;20586;-80
2023/09/29 04:50:34;;;;;;;6.43;2.45;;;;;;;17.40;65.99;100403.28;21042988;28;20230;-79
2023/09/29 05:00:35;;;;;;;4.43;2.10;;;;;;;17.98;64.05;100417.47;21041797;28;20285;-79
2023/09/29 05:10:39;;;;;;;4.60;2.47;;;;;;;17.88;66.13;100407.50;21046267;28;20229;-80
2023/09/29 05:20:40;;;;;;;7.15;2.50;;;;;;;17.93;65.85;100410.88;21076031;28;20294;-80
2023/09/29 05:30:54;;;;;;;3.88;2.10;;;;;;;17.50;66.81;100402.66;21071124;28;20225;-81
2023/09/29 05:40:55;;;;;;;3.90;2.53;;;;;;;17.44;67.04;100398.47;21090179;28;20205;-80
2023/09/29 05:50:59;;;;;;;2.80;1.85;;;;;;;17.30;66.91;100403.84;21094794;27;20218;-81
2023/09/29 06:01:08;;;;;;;5.03;2.53;;;;;;;17.60;65.29;100395.53;21088525;28;20255;-80
2023/09/29 06:11:11;;;;;;;5.65;2.22;;;;;;;17.55;64.51;100394.63;21089833;28;20487;-87
2023/09/29 06:21:13;;;;;;;3.38;1.88;;;;;;;18.04;62.79;100394.03;21094001;28;20210;-80
2023/09/29 06:31:18;;;;;;;5.57;2.35;;;;;;;17.88;63.15;100396.94;21096338;28;20226;-80
2023/09/29 06:41:20;;;;;;;3.90;1.77;;;;;;;18.03;61.85;100397.25;21091859;28;20629;-80
2023/09/29 06:51:23;;;;;;;4.43;1.90;;;;;;;18.51;60.41;100396.47;21089937;28;20226;-81
2023/09/29 07:01:26;;;;;;;3.20;1.50;;;;;;;18.52;60.51;100381.00;21083872;28;20325;-81
2023/09/29 07:11:29;;;;;;;4.65;1.65;;;;;;;18.37;62.22;100384.81;21087797;28;20435;-82
2023/09/29 07:21:31;;;;;;;3.88;1.42;;;;;;;18.31;63.17;100377.00;21086958;28;20194;-80
2023/09/29 07:31:38;;;;;;;3.58;1.50;;;;;;;18.13;63.80;100370.97;21089481;28;20254;-80
2023/09/29 07:41:40;;;;;;;2.67;1.13;;;;;;;18.41;63.04;100382.88;21085325;28;20604;-80
2023/09/29 07:51:43;;;;;;;1.90;1.52;;;;;;;18.97;61.61;100368.69;21087261;28;20233;-82
2023/09/29 08:01:49;;;;;;;3.95;1.50;;;;;;;18.79;61.81;100370.47;21077546;28;20206;-81
2023/09/29 08:11:52;;;;;;;3.42;1.70;;;;;;;18.73;62.42;100360.59;21082252;28;20248;-80
2023/09/29 08:21:53;;;;;;;3.10;1.65;;;;;;;19.45;60.37;100357.56;21092510;28;20254;-81
2023/09/29 08:31:58;;;;;;;1.95;1.23;;;;;;;20.33;57.94;100336.84;21083238;28;20222;-82
2023/09/29 08:42:03;;;;;;;3.10;1.80;;;;;;;19.56;58.69;100355.66;21073498;28;20194;-81
2023/09/29 08:52:07;;;;;;;4.20;1.38;;;;;;;20.24;57.74;100340.06;21071375;28;20261;-82
2023/09/29 09:02:09;;;;;;;4.45;1.80;;;;;;;20.87;55.97;100349.53;21079422;28;20518;-81
2023/09/29 09:12:12;;;;;;;3.65;1.63;;;;;;;20.85;54.82;100358.50;21075371;28;20226;-82
2023/09/29 09:22:15;;;;;;;3.42;1.52;;;;;;;21.28;53.92;100362.47;21068964;28;20217;-86
2023/09/29 09:32:26;;;;;;;4.95;2.10;;;;;;;21.35;54.06;100373.94;21072238;28;20226;-82
2023/09/29 09:42:28;;;;;;;3.28;1.70;;;;;;;20.78;55.03;100395.66;21069583;28;20198;-82
2023/09/29 09:52:31;;;;;;;3.45;1.80;;;;;;;21.29;53.55;100395.59;21064600;28;20223;-87
2023/09/29 10:02:35;;;;;;;7.15;1.90;;;;;;;20.81;55.20;100391.16;21032983;28;20569;-87
2023/09/29 10:12:38;;;;;;;3.10;1.63;;;;;;;20.53;55.31;100409.69;21073296;28;20388;-87
2023/09/29 10:22:40;;;;;;;4.95;1.77;;;;;;;21.01;54.36;100412.56;21076955;28;20293;-89
2023/09/29 10:32:47;;;;;;;4.47;2.05;;;;;;;20.88;53.60;100408.38;21101750;28;20233;-86
2023/09/29 10:42:54;;;;;;;3.28;2.10;;;;;;;20.59;55.54;100439.63;21095468;28;20197;-81
2023/09/29 10:53:00;;;;;;;6.10;2.03;;;;;;;20.23;57.69;100444.16;21104884;28;20313;-85
2023/09/29 11:03:05;;;;;;;2.45;1.70;;;;;;;20.55;54.93;100447.31;21082207;28;20494;-82
2023/09/29 11:13:31;;;;;;;3.55;2.08;;;;;;;20.28;53.98;100452.34;21056736;28;20577;-84
2023/09/29 11:23:41;;;;;;;5.03;2.10;;;;;;;20.59;53.06;100462.50;21067637;28;20584;-86
2023/09/29 11:33:57;;;;;;;5.20;2.17;;;;;;;21.10;51.59;100464.53;21056628;28;20231;-80
2023/09/29 11:43:59;;;;;;;7.60;2.58;;;;;;;20.95;52.30;100465.66;21068860;28;20258;-90
2023/09/29 11:54:02;;;;;;;4.95;2.80;;;;;;;21.75;49.71;100458.81;21063024;28;20223;-81
2023/09/29 12:04:04;;;;;;;9.25;3.10;;;;;;;21.66;48.63;100477.59;21034038;28;20581;-86
2023/09/29 12:14:08;;;;;;;7.00;2.72;;;;;;;21.70;47.67;100461.22;21061291;28;20210;-88
2023/09/29 12:24:10;;;;;;;7.75;2.83;;;;;;;21.74;46.76;100462.91;21057144;28;20226;-94
2023/09/29 12:34:15;;;;;;;8.00;2.78;;;;;;;21.83;46.02;100476.88;21072045;28;20217;-90
2023/09/29 12:44:18;;;;;;;11.73;3.63;;;;;;;21.90;47.31;100494.09;21040458;28;20309;-85
2023/09/29 12:54:22;;;;;;;9.18;3.45;;;;;;;21.15;48.81;100492.78;21070960;28;20229;-88
2023/09/29 13:04:28;;;;;;;8.57;3.08;;;;;;;21.34;48.53;100495.41;21072099;28;20321;-81
2023/09/29 13:14:32;;;;;;;9.63;3.58;;;;;;;20.27;50.86;100516.44;21050378;28;20199;-90
2023/09/29 13:24:34;;;;;;;9.00;3.33;;;;;;;20.19;51.62;100533.91;21073746;28;20217;-90
2023/09/29 13:34:39;;;;;;;9.43;3.90;;;;;;;20.46;51.78;100531.75;21062107;28;20202;-88
2023/09/29 13:44:41;;;;;;;12.15;3.40;;;;;;;20.79;51.46;100545.19;21057322;28;20231;-88
2023/09/29 13:54:44;;;;;;;10.63;4.07;;;;;;;20.25;53.37;100540.94;21063870;28;20236;-86
2023/09/29 14:04:46;;;;;;;9.43;3.78;;;;;;;20.61;55.84;100563.00;21079351;28;20232;-83
2023/09/29 14:14:50;;;;;;;7.47;2.30;;;;;;;20.41;56.89;100561.50;21049946;28;20599;-81
2023/09/29 14:24:52;;;;;;;6.60;1.83;;;;;;;19.86;58.63;100589.78;21051604;28;20221;-83
2023/09/29 14:34:55;;;;;;;3.75;1.55;;;;;;;19.84;59.44;100595.03;21076147;28;20613;-80
2023/09/29 14:44:57;;;;;;;4.50;0.93;;;;;;;19.74;60.36;100589.19;21068512;28;20828;-83
2023/09/29 14:55:04;;;;;;;2.00;0.93;;;;;;;19.48;62.94;100616.53;21066608;28;20229;-79
2023/09/29 15:05:06;;;;;;;1.90;1.25;;;;;;;18.70;73.74;100632.22;21068329;28;20225;-79
2023/09/29 15:15:11;;;;;;;5.20;1.75;;;;;;;18.63;75.06;100649.16;21071027;28;20210;-84
2023/09/29 15:25:13;;;;;;;4.85;1.88;;;;;;;18.38;78.58;100660.00;21103669;28;21610;-79
2023/09/29 15:35:16;;;;;;;2.25;1.10;;;;;;;17.61;81.03;100671.22;21097619;28;20194;-81
2023/09/29 15:45:20;;;;;;;3.78;1.55;;;;;;;17.57;78.45;100699.56;21108589;28;20214;-88
2023/09/29 15:55:23;;;;;;;2.03;1.30;;;;;;;17.61;77.42;100711.06;21108279;28;20622;-85
2023/09/29 16:05:31;;;;;;;1.52;1.25;;;;;;;17.54;75.82;100750.69;21087819;28;20496;-81
2023/09/29 16:15:37;;;;;;;2.72;0.80;;;;;;;17.27;75.98;100780.06;21078441;28;20194;-82
2023/09/29 16:25:39;;;;;;;1.00;0.88;;;;;;;16.61;76.79;100817.47;21089958;28;20218;-83
2023/09/29 16:35:42;;;;;;;2.85;0.30;;;;;;;16.26;72.34;100851.19;21063048;28;20195;-79
2023/09/29 16:45:44;;;;;;;4.38;0.60;;;;;;;16.63;71.17;100875.56;21060690;28;20626;-80
2023/09/29 16:55:48;;;;;;;3.67;0.80;;;;;;;16.81;69.39;100910.25;21050834;28;20234;-79
2023/09/29 17:05:50;;;;;;;2.55;0.70;;;;;;;16.75;69.35;100923.88;21060409;28;20309;-79
2023/09/29 17:15:53;;;;;;;2.50;0.32;;;;;;;17.02;67.67;100945.03;21062594;28;20221;-78
2023/09/29 17:25:55;;;;;;;4.82;0.80;;;;;;;16.27;68.52;100972.13;21049295;28;20220;-79
2023/09/29 17:35:58;;;;;;;4.05;1.13;;;;;;;16.29;67.88;100989.63;21077089;28;20197;-79
2023/09/29 17:46:04;;;;;;;2.78;0.90;;;;;;;16.46;65.28;100998.78;21085038;28;20221;-86
2023/09/29 17:56:10;;;;;;;3.63;1.00;;;;;;;16.42;62.93;101014.88;21063276;28;20337;-80
2023/09/29 18:06:12;;;;;;;4.90;1.75;;;;;;;16.81;60.73;101023.94;21069570;28;20620;-82
2023/09/29 18:16:16;;;;;;;3.90;1.05;;;;;;;16.72;60.69;101057.34;21079128;28;20228;-80
2023/09/29 18:26:18;;;;;;;8.68;1.08;;;;;;;16.98;60.52;101082.59;21057207;28;20514;-79
2023/09/29 18:36:22;;;;;;;6.03;1.20;;;;;;;17.23;61.59;101094.84;21079041;28;20194;-87
2023/09/29 18:46:28;;;;;;;8.40;1.52;;;;;;;16.37;65.62;101123.03;21063462;28;20230;-87
2023/09/29 18:56:38;;;;;;;5.45;2.05;;;;;;;16.08;64.87;101141.03;21082169;28;20230;-87
2023/09/29 19:06:42;;;;;;;3.78;1.30;;;;;;;16.22;64.51;101160.63;21080322;28;20697;-83
2023/09/29 19:16:45;;;;;;;6.57;1.25;;;;;;;16.50;62.11;101178.75;21084632;28;20199;-83
2023/09/29 19:26:48;;;;;;;5.75;2.03;;;;;;;16.25;64.52;101184.63;21073553;28;20256;-82
2023/09/29 19:36:51;;;;;;;5.45;1.77;;;;;;;15.44;65.50;101214.19;21059108;28;20208;-79
2023/09/29 19:46:53;;;;;;;6.25;1.38;;;;;;;15.99;65.20;101207.53;21072636;28;20216;-79
2023/09/29 19:56:56;;;;;;;5.35;1.80;;;;;;;15.52;62.41;101219.00;21071602;28;20306;-81
2023/09/29 20:06:58;;;;;;;6.38;1.35;;;;;;;15.07;63.76;101239.34;21077962;28;20218;-78
2023/09/29 20:17:02;;;;;;;7.95;2.45;;;;;;;15.06;63.88;101253.88;21067825;28;20686;-78
2023/09/29 20:27:05;;;;;;;5.20;1.98;;;;;;;14.86;64.18;101255.38;21061783;28;20222;-81
2023/09/29 20:37:08;;;;;;;3.72;1.88;;;;;;;15.04;62.96;101268.38;21062813;28;20217;-79
2023/09/29 20:47:10;;;;;;;9.40;2.45;;;;;;;15.30;61.66;101287.31;21057706;28;20226;-80
2023/09/29 20:57:13;;;;;;;6.55;2.20;;;;;;;15.15;62.38;101314.22;21058070;28;20519;-80
2023/09/29 21:07:15;;;;;;;11.40;3.17;;;;;;;14.91;63.38;101340.22;21081771;28;20226;-86
2023/09/29 21:17:18;;;;;;;10.68;2.72;;;;;;;14.97;62.16;101335.19;21056634;28;20198;-79
2023/09/29 21:27:20;;;;;;;10.43;2.70;;;;;;;14.35;64.67;101352.50;21057637;28;20222;-81
2023/09/29 21:37:23;;;;;;;9.40;2.90;;;;;;;14.41;65.50;101339.03;21049877;28;20199;-82
2023/09/29 21:47:26;;;;;;;6.07;2.58;;;;;;;14.39;66.81;101360.00;21071782;28;20218;-82
2023/09/29 21:57:29;;;;;;;11.65;3.60;;;;;;;14.21;68.58;101341.31;21051423;28;20234;-82
2023/09/29 22:07:31;;;;;;;8.52;3.47;;;;;;;14.15;68.48;101367.25;21070482;28;20227;-80
2023/09/29 22:17:34;;;;;;;12.05;3.20;;;;;;;13.87;69.67;101375.97;21065669;28;20205;-80
2023/09/29 22:27:36;;;;;;;11.57;3.63;;;;;;;13.26;72.27;101383.22;21065004;28;20215;-79
2023/09/29 22:37:42;;;;;;;9.75;3.83;;;;;;;13.54;70.33;101392.41;21062474;28;20252;-78
2023/09/29 22:47:44;;;;;;;13.73;3.83;;;;;;;13.54;70.78;101388.75;21070314;28;20249;-79
2023/09/29 22:57:47;;;;;;;12.18;4.03;;;;;;;13.81;69.05;101387.72;21066768;28;20238;-78
2023/09/29 23:07:49;;;;;;;10.82;4.50;;;;;;;13.38;70.15;101374.19;21082237;28;20214;-78
2023/09/29 23:17:54;;;;;;;11.00;3.97;;;;;;;13.55;68.68;101384.75;21052859;28;20202;-78
2023/09/29 23:27:56;;;;;;;11.03;3.73;;;;;;;13.57;68.13;101383.28;21040020;28;20398;-80
2023/09/29 23:37:59;;;;;;;11.75;3.92;;;;;;;12.97;69.92;101414.75;21056740;28;20206;-78
2023/09/29 23:48:01;;;;;;;11.82;4.05;;;;;;;13.59;67.80;101416.91;21050319;28;20225;-78
2023/09/29 23:58:04;;;;;;;12.10;3.88;;;;;;;13.60;67.17;101422.25;21068834;28;20225;-78
